sensor_id;sensor_type;location;lat;lon;timestamp;P1;durP1;ratioP1;P2;durP2;ratioP2
28309;SDS011;15571;50.974;13.936;2022-09-09T00:00:46;2.67;;;1.40;;
28309;SDS011;15571;50.974;13.936;2022-09-09T00:03:56;2.72;;;1.60;;
28309;SDS011;15571;50.974;13.936;2022-09-09T00:07:03;4.05;;;1.40;;
28309;SDS011;15571;50.974;13.936;2022-09-09T00:10:20;2.88;;;1.40;;
28309;SDS011;15571;50.974;13.936;2022-09-09T00:13:28;2.33;;;1.88;;
28309;SDS011;15571;50.974;13.936;2022-09-09T00:16:36;1.63;;;1.42;;
28309;SDS011;15571;50.974;13.936;2022-09-09T00:19:46;2.67;;;1.60;;
28309;SDS011;15571;50.974;13.936;2022-09-09T00:22:57;2.95;;;1.40;;
28309;SDS011;15571;50.974;13.936;2022-09-09T00:26:10;3.20;;;1.48;;
28309;SDS011;15571;50.974;13.936;2022-09-09T00:29:23;1.63;;;1.15;;
28309;SDS011;15571;50.974;13.936;2022-09-09T00:32:31;3.08;;;1.40;;
28309;SDS011;15571;50.974;13.936;2022-09-09T00:35:38;3.58;;;1.42;;
28309;SDS011;15571;50.974;13.936;2022-09-09T00:38:45;4.20;;;1.25;;
28309;SDS011;15571;50.974;13.936;2022-09-09T00:41:56;1.42;;;1.33;;
28309;SDS011;15571;50.974;13.936;2022-09-09T00:45:15;4.20;;;1.70;;
28309;SDS011;15571;50.974;13.936;2022-09-09T00:48:40;2.13;;;1.27;;
28309;SDS011;15571;50.974;13.936;2022-09-09T00:51:58;1.45;;;1.30;;
28309;SDS011;15571;50.974;13.936;2022-09-09T00:55:11;2.33;;;1.17;;
28309;SDS011;15571;50.974;13.936;2022-09-09T00:58:21;2.50;;;1.40;;
28309;SDS011;15571;50.974;13.936;2022-09-09T01:01:23;4.18;;;2.10;;
28309;SDS011;15571;50.974;13.936;2022-09-09T01:04:30;7.18;;;1.50;;
28309;SDS011;15571;50.974;13.936;2022-09-09T01:07:36;3.03;;;1.20;;
28309;SDS011;15571;50.974;13.936;2022-09-09T01:10:43;2.78;;;1.40;;
28309;SDS011;15571;50.974;13.936;2022-09-09T01:13:55;1.88;;;1.50;;
28309;SDS011;15571;50.974;13.936;2022-09-09T01:17:09;2.42;;;1.70;;
28309;SDS011;15571;50.974;13.936;2022-09-09T01:20:21;4.43;;;1.42;;
28309;SDS011;15571;50.974;13.936;2022-09-09T01:23:45;4.03;;;1.60;;
28309;SDS011;15571;50.974;13.936;2022-09-09T01:27:09;2.97;;;1.35;;
28309;SDS011;15571;50.974;13.936;2022-09-09T01:30:15;2.80;;;1.63;;
28309;SDS011;15571;50.974;13.936;2022-09-09T01:33:21;1.90;;;1.35;;
28309;SDS011;15571;50.974;13.936;2022-09-09T01:36:29;1.42;;;1.15;;
28309;SDS011;15571;50.974;13.936;2022-09-09T01:39:43;4.63;;;1.30;;
28309;SDS011;15571;50.974;13.936;2022-09-09T01:42:51;3.00;;;1.58;;
28309;SDS011;15571;50.974;13.936;2022-09-09T01:45:56;3.10;;;1.40;;
28309;SDS011;15571;50.974;13.936;2022-09-09T01:49:02;3.55;;;1.63;;
28309;SDS011;15571;50.974;13.936;2022-09-09T01:52:07;4.07;;;1.55;;
28309;SDS011;15571;50.974;13.936;2022-09-09T01:55:12;4.50;;;1.60;;
28309;SDS011;15571;50.974;13.936;2022-09-09T01:58:20;1.48;;;1.20;;
28309;SDS011;15571;50.974;13.936;2022-09-09T02:01:41;1.60;;;1.50;;
28309;SDS011;15571;50.974;13.936;2022-09-09T02:04:56;2.38;;;1.30;;
28309;SDS011;15571;50.974;13.936;2022-09-09T02:08:15;2.60;;;1.58;;
28309;SDS011;15571;50.974;13.936;2022-09-09T02:11:35;3.50;;;1.55;;
28309;SDS011;15571;50.974;13.936;2022-09-09T02:14:50;2.67;;;1.80;;
28309;SDS011;15571;50.974;13.936;2022-09-09T02:18:10;1.77;;;1.65;;
28309;SDS011;15571;50.974;13.936;2022-09-09T02:21:21;2.17;;;1.55;;
28309;SDS011;15571;50.974;13.936;2022-09-09T02:24:28;2.28;;;1.55;;
28309;SDS011;15571;50.974;13.936;2022-09-09T02:27:46;3.92;;;1.80;;
28309;SDS011;15571;50.974;13.936;2022-09-09T02:30:52;2.00;;;1.83;;
28309;SDS011;15571;50.974;13.936;2022-09-09T02:34:01;2.20;;;1.88;;
28309;SDS011;15571;50.974;13.936;2022-09-09T02:37:06;5.38;;;2.08;;
28309;SDS011;15571;50.974;13.936;2022-09-09T02:40:12;4.03;;;2.08;;
28309;SDS011;15571;50.974;13.936;2022-09-09T02:43:21;4.20;;;2.20;;
28309;SDS011;15571;50.974;13.936;2022-09-09T02:46:29;2.38;;;1.90;;
28309;SDS011;15571;50.974;13.936;2022-09-09T02:49:43;2.55;;;2.00;;
28309;SDS011;15571;50.974;13.936;2022-09-09T02:53:01;3.03;;;2.30;;
28309;SDS011;15571;50.974;13.936;2022-09-09T02:56:16;3.70;;;1.95;;
28309;SDS011;15571;50.974;13.936;2022-09-09T02:59:24;2.20;;;1.98;;
28309;SDS011;15571;50.974;13.936;2022-09-09T03:02:33;7.93;;;2.65;;
28309;SDS011;15571;50.974;13.936;2022-09-09T03:05:39;4.57;;;2.22;;
28309;SDS011;15571;50.974;13.936;2022-09-09T03:08:42;2.92;;;2.38;;
28309;SDS011;15571;50.974;13.936;2022-09-09T03:11:45;4.18;;;2.13;;
28309;SDS011;15571;50.974;13.936;2022-09-09T03:14:50;4.93;;;2.17;;
28309;SDS011;15571;50.974;13.936;2022-09-09T03:17:54;2.70;;;2.17;;
28309;SDS011;15571;50.974;13.936;2022-09-09T03:20:59;4.00;;;2.28;;
28309;SDS011;15571;50.974;13.936;2022-09-09T03:24:04;6.10;;;2.72;;
28309;SDS011;15571;50.974;13.936;2022-09-09T03:27:07;7.65;;;2.88;;
28309;SDS011;15571;50.974;13.936;2022-09-09T03:30:12;5.10;;;2.85;;
28309;SDS011;15571;50.974;13.936;2022-09-09T03:33:18;3.78;;;2.15;;
28309;SDS011;15571;50.974;13.936;2022-09-09T03:36:21;3.53;;;2.50;;
28309;SDS011;15571;50.974;13.936;2022-09-09T03:39:24;4.25;;;2.50;;
28309;SDS011;15571;50.974;13.936;2022-09-09T03:42:27;4.50;;;2.75;;
28309;SDS011;15571;50.974;13.936;2022-09-09T03:45:31;5.95;;;2.35;;
28309;SDS011;15571;50.974;13.936;2022-09-09T03:48:38;8.95;;;4.20;;
28309;SDS011;15571;50.974;13.936;2022-09-09T03:51:41;5.85;;;2.97;;
28309;SDS011;15571;50.974;13.936;2022-09-09T03:54:46;7.68;;;3.65;;
28309;SDS011;15571;50.974;13.936;2022-09-09T03:57:49;5.10;;;3.10;;
28309;SDS011;15571;50.974;13.936;2022-09-09T04:00:53;3.22;;;2.70;;
28309;SDS011;15571;50.974;13.936;2022-09-09T04:03:58;5.10;;;2.72;;
28309;SDS011;15571;50.974;13.936;2022-09-09T04:07:03;4.47;;;3.20;;
28309;SDS011;15571;50.974;13.936;2022-09-09T04:10:08;3.33;;;2.70;;
28309;SDS011;15571;50.974;13.936;2022-09-09T04:13:13;3.95;;;2.63;;
28309;SDS011;15571;50.974;13.936;2022-09-09T04:16:19;6.28;;;3.05;;
28309;SDS011;15571;50.974;13.936;2022-09-09T04:20:04;3.20;;;2.90;;
28309;SDS011;15571;50.974;13.936;2022-09-09T04:23:08;3.30;;;2.75;;
28309;SDS011;15571;50.974;13.936;2022-09-09T04:26:11;3.50;;;3.00;;
28309;SDS011;15571;50.974;13.936;2022-09-09T04:29:14;3.90;;;2.53;;
28309;SDS011;15571;50.974;13.936;2022-09-09T04:32:17;4.55;;;2.88;;
28309;SDS011;15571;50.974;13.936;2022-09-09T04:35:24;3.20;;;2.67;;
28309;SDS011;15571;50.974;13.936;2022-09-09T04:38:31;7.18;;;3.00;;
28309;SDS011;15571;50.974;13.936;2022-09-09T04:41:33;2.90;;;2.60;;
28309;SDS011;15571;50.974;13.936;2022-09-09T04:44:36;4.50;;;2.85;;
28309;SDS011;15571;50.974;13.936;2022-09-09T04:47:40;3.47;;;2.50;;
28309;SDS011;15571;50.974;13.936;2022-09-09T04:50:44;3.70;;;2.58;;
28309;SDS011;15571;50.974;13.936;2022-09-09T04:53:59;3.28;;;2.67;;
28309;SDS011;15571;50.974;13.936;2022-09-09T04:57:01;5.15;;;3.30;;
28309;SDS011;15571;50.974;13.936;2022-09-09T05:00:04;3.63;;;3.10;;
28309;SDS011;15571;50.974;13.936;2022-09-09T05:03:12;3.38;;;3.03;;
28309;SDS011;15571;50.974;13.936;2022-09-09T05:06:17;4.47;;;2.63;;
28309;SDS011;15571;50.974;13.936;2022-09-09T05:09:23;3.60;;;2.95;;
28309;SDS011;15571;50.974;13.936;2022-09-09T05:12:26;6.63;;;2.70;;
28309;SDS011;15571;50.974;13.936;2022-09-09T05:15:30;4.72;;;2.90;;
28309;SDS011;15571;50.974;13.936;2022-09-09T05:18:36;3.33;;;3.03;;
28309;SDS011;15571;50.974;13.936;2022-09-09T05:21:40;5.13;;;3.35;;
28309;SDS011;15571;50.974;13.936;2022-09-09T05:24:43;4.50;;;3.40;;
28309;SDS011;15571;50.974;13.936;2022-09-09T05:27:50;4.30;;;3.58;;
28309;SDS011;15571;50.974;13.936;2022-09-09T05:30:57;5.15;;;3.25;;
28309;SDS011;15571;50.974;13.936;2022-09-09T05:34:02;4.65;;;3.00;;
28309;SDS011;15571;50.974;13.936;2022-09-09T05:37:06;4.15;;;3.03;;
28309;SDS011;15571;50.974;13.936;2022-09-09T05:40:10;3.85;;;3.28;;
28309;SDS011;15571;50.974;13.936;2022-09-09T05:43:14;4.68;;;3.25;;
28309;SDS011;15571;50.974;13.936;2022-09-09T05:46:20;5.13;;;3.60;;
28309;SDS011;15571;50.974;13.936;2022-09-09T05:49:25;3.92;;;3.45;;
28309;SDS011;15571;50.974;13.936;2022-09-09T05:52:30;4.63;;;3.20;;
28309;SDS011;15571;50.974;13.936;2022-09-09T05:55:33;4.78;;;2.90;;
28309;SDS011;15571;50.974;13.936;2022-09-09T05:58:37;3.08;;;2.75;;
28309;SDS011;15571;50.974;13.936;2022-09-09T06:01:44;4.18;;;3.08;;
28309;SDS011;15571;50.974;13.936;2022-09-09T06:04:57;5.70;;;3.60;;
28309;SDS011;15571;50.974;13.936;2022-09-09T06:08:01;6.68;;;3.03;;
28309;SDS011;15571;50.974;13.936;2022-09-09T06:11:06;3.92;;;3.33;;
28309;SDS011;15571;50.974;13.936;2022-09-09T06:14:12;3.70;;;3.40;;
28309;SDS011;15571;50.974;13.936;2022-09-09T06:17:23;4.22;;;3.38;;
28309;SDS011;15571;50.974;13.936;2022-09-09T06:20:26;3.63;;;3.10;;
28309;SDS011;15571;50.974;13.936;2022-09-09T06:23:33;5.60;;;3.15;;
28309;SDS011;15571;50.974;13.936;2022-09-09T06:26:37;5.85;;;3.35;;
28309;SDS011;15571;50.974;13.936;2022-09-09T06:29:43;5.97;;;3.20;;
28309;SDS011;15571;50.974;13.936;2022-09-09T06:32:50;2.85;;;2.53;;
28309;SDS011;15571;50.974;13.936;2022-09-09T06:35:53;2.92;;;2.70;;
28309;SDS011;15571;50.974;13.936;2022-09-09T06:38:59;5.95;;;2.50;;
28309;SDS011;15571;50.974;13.936;2022-09-09T06:42:05;5.38;;;2.70;;
28309;SDS011;15571;50.974;13.936;2022-09-09T06:45:24;2.60;;;2.40;;
28309;SDS011;15571;50.974;13.936;2022-09-09T06:48:31;5.00;;;2.70;;
28309;SDS011;15571;50.974;13.936;2022-09-09T06:51:35;4.15;;;2.85;;
28309;SDS011;15571;50.974;13.936;2022-09-09T06:54:46;3.25;;;2.58;;
28309;SDS011;15571;50.974;13.936;2022-09-09T06:57:50;3.83;;;2.40;;
28309;SDS011;15571;50.974;13.936;2022-09-09T07:01:03;5.00;;;2.20;;
28309;SDS011;15571;50.974;13.936;2022-09-09T07:04:07;2.10;;;1.92;;
28309;SDS011;15571;50.974;13.936;2022-09-09T07:07:14;4.20;;;2.08;;
28309;SDS011;15571;50.974;13.936;2022-09-09T07:10:19;2.92;;;2.47;;
28309;SDS011;15571;50.974;13.936;2022-09-09T07:13:23;2.58;;;2.30;;
28309;SDS011;15571;50.974;13.936;2022-09-09T07:16:27;2.83;;;2.20;;
28309;SDS011;15571;50.974;13.936;2022-09-09T07:19:36;2.63;;;2.42;;
28309;SDS011;15571;50.974;13.936;2022-09-09T07:22:47;3.55;;;2.38;;
28309;SDS011;15571;50.974;13.936;2022-09-09T07:25:51;3.22;;;2.40;;
28309;SDS011;15571;50.974;13.936;2022-09-09T07:28:55;6.53;;;2.40;;
28309;SDS011;15571;50.974;13.936;2022-09-09T07:31:58;3.70;;;1.92;;
28309;SDS011;15571;50.974;13.936;2022-09-09T07:35:07;2.30;;;2.10;;
28309;SDS011;15571;50.974;13.936;2022-09-09T07:38:10;3.95;;;2.05;;
28309;SDS011;15571;50.974;13.936;2022-09-09T07:41:17;2.85;;;1.83;;
28309;SDS011;15571;50.974;13.936;2022-09-09T07:44:23;2.55;;;1.73;;
28309;SDS011;15571;50.974;13.936;2022-09-09T07:47:38;2.45;;;1.90;;
28309;SDS011;15571;50.974;13.936;2022-09-09T07:50:43;2.83;;;1.95;;
28309;SDS011;15571;50.974;13.936;2022-09-09T07:53:46;4.43;;;2.00;;
28309;SDS011;15571;50.974;13.936;2022-09-09T07:56:51;2.15;;;1.90;;
28309;SDS011;15571;50.974;13.936;2022-09-09T08:00:02;2.58;;;1.80;;
28309;SDS011;15571;50.974;13.936;2022-09-09T08:03:12;2.55;;;1.63;;
28309;SDS011;15571;50.974;13.936;2022-09-09T08:06:17;2.88;;;1.90;;
28309;SDS011;15571;50.974;13.936;2022-09-09T08:09:20;2.67;;;1.85;;
28309;SDS011;15571;50.974;13.936;2022-09-09T08:12:28;2.85;;;1.83;;
28309;SDS011;15571;50.974;13.936;2022-09-09T08:15:31;2.42;;;2.10;;
28309;SDS011;15571;50.974;13.936;2022-09-09T08:18:35;2.88;;;2.05;;
28309;SDS011;15571;50.974;13.936;2022-09-09T08:21:41;4.75;;;2.03;;
28309;SDS011;15571;50.974;13.936;2022-09-09T08:24:46;4.55;;;1.92;;
28309;SDS011;15571;50.974;13.936;2022-09-09T08:27:52;3.38;;;2.00;;
28309;SDS011;15571;50.974;13.936;2022-09-09T08:30:55;2.88;;;2.15;;
28309;SDS011;15571;50.974;13.936;2022-09-09T08:34:01;4.45;;;2.05;;
28309;SDS011;15571;50.974;13.936;2022-09-09T08:37:05;3.30;;;2.10;;
28309;SDS011;15571;50.974;13.936;2022-09-09T08:40:13;6.00;;;1.75;;
28309;SDS011;15571;50.974;13.936;2022-09-09T08:46:31;3.33;;;1.95;;
28309;SDS011;15571;50.974;13.936;2022-09-09T08:49:55;3.25;;;1.95;;
28309;SDS011;15571;50.974;13.936;2022-09-09T08:53:09;3.10;;;1.95;;
28309;SDS011;15571;50.974;13.936;2022-09-09T08:56:18;4.15;;;2.15;;
28309;SDS011;15571;50.974;13.936;2022-09-09T08:59:28;14.60;;;4.85;;
28309;SDS011;15571;50.974;13.936;2022-09-09T09:02:32;10.98;;;4.07;;
28309;SDS011;15571;50.974;13.936;2022-09-09T09:05:42;6.28;;;3.05;;
28309;SDS011;15571;50.974;13.936;2022-09-09T09:08:51;5.28;;;2.17;;
28309;SDS011;15571;50.974;13.936;2022-09-09T09:12:08;3.55;;;2.00;;
28309;SDS011;15571;50.974;13.936;2022-09-09T09:15:23;3.28;;;1.88;;
28309;SDS011;15571;50.974;13.936;2022-09-09T09:18:30;4.60;;;2.13;;
28309;SDS011;15571;50.974;13.936;2022-09-09T09:21:36;3.75;;;1.90;;
28309;SDS011;15571;50.974;13.936;2022-09-09T09:24:48;4.50;;;1.30;;
28309;SDS011;15571;50.974;13.936;2022-09-09T09:27:58;3.80;;;1.35;;
28309;SDS011;15571;50.974;13.936;2022-09-09T09:31:08;2.20;;;1.60;;
28309;SDS011;15571;50.974;13.936;2022-09-09T09:34:20;4.50;;;1.27;;
28309;SDS011;15571;50.974;13.936;2022-09-09T09:37:26;4.38;;;1.35;;
28309;SDS011;15571;50.974;13.936;2022-09-09T09:40:32;2.38;;;1.77;;
28309;SDS011;15571;50.974;13.936;2022-09-09T09:43:35;3.72;;;1.48;;
28309;SDS011;15571;50.974;13.936;2022-09-09T09:46:45;4.65;;;1.80;;
28309;SDS011;15571;50.974;13.936;2022-09-09T09:49:51;7.75;;;2.25;;
28309;SDS011;15571;50.974;13.936;2022-09-09T09:53:02;6.88;;;1.85;;
28309;SDS011;15571;50.974;13.936;2022-09-09T09:56:12;5.70;;;1.90;;
28309;SDS011;15571;50.974;13.936;2022-09-09T09:59:19;2.65;;;1.45;;
28309;SDS011;15571;50.974;13.936;2022-09-09T10:02:36;5.32;;;1.63;;
28309;SDS011;15571;50.974;13.936;2022-09-09T10:05:47;5.43;;;2.25;;
28309;SDS011;15571;50.974;13.936;2022-09-09T10:08:50;4.45;;;2.42;;
28309;SDS011;15571;50.974;13.936;2022-09-09T10:11:55;3.42;;;1.95;;
28309;SDS011;15571;50.974;13.936;2022-09-09T10:15:07;3.63;;;1.70;;
28309;SDS011;15571;50.974;13.936;2022-09-09T10:22:04;2.67;;;1.20;;
28309;SDS011;15571;50.974;13.936;2022-09-09T10:25:30;2.45;;;1.50;;
28309;SDS011;15571;50.974;13.936;2022-09-09T10:28:51;3.00;;;1.10;;
28309;SDS011;15571;50.974;13.936;2022-09-09T10:32:09;1.38;;;1.00;;
28309;SDS011;15571;50.974;13.936;2022-09-09T10:35:38;2.63;;;1.13;;
28309;SDS011;15571;50.974;13.936;2022-09-09T10:38:52;2.05;;;1.17;;
28309;SDS011;15571;50.974;13.936;2022-09-09T10:45:10;2.75;;;1.05;;
28309;SDS011;15571;50.974;13.936;2022-09-09T10:48:27;2.53;;;1.17;;
28309;SDS011;15571;50.974;13.936;2022-09-09T10:51:36;2.22;;;1.08;;
28309;SDS011;15571;50.974;13.936;2022-09-09T10:54:51;2.47;;;1.23;;
28309;SDS011;15571;50.974;13.936;2022-09-09T10:57:58;2.05;;;0.93;;
28309;SDS011;15571;50.974;13.936;2022-09-09T11:01:08;1.40;;;0.88;;
28309;SDS011;15571;50.974;13.936;2022-09-09T11:07:27;3.08;;;1.05;;
28309;SDS011;15571;50.974;13.936;2022-09-09T11:10:38;2.22;;;0.70;;
28309;SDS011;15571;50.974;13.936;2022-09-09T11:13:46;2.97;;;0.90;;
28309;SDS011;15571;50.974;13.936;2022-09-09T11:16:56;1.90;;;0.90;;
28309;SDS011;15571;50.974;13.936;2022-09-09T11:20:05;3.50;;;1.10;;
28309;SDS011;15571;50.974;13.936;2022-09-09T11:23:14;2.53;;;1.00;;
28309;SDS011;15571;50.974;13.936;2022-09-09T11:26:28;3.17;;;1.00;;
28309;SDS011;15571;50.974;13.936;2022-09-09T11:29:45;2.40;;;0.82;;
28309;SDS011;15571;50.974;13.936;2022-09-09T11:33:15;2.35;;;0.90;;
28309;SDS011;15571;50.974;13.936;2022-09-09T11:36:44;2.75;;;0.93;;
28309;SDS011;15571;50.974;13.936;2022-09-09T11:40:14;2.70;;;1.00;;
28309;SDS011;15571;50.974;13.936;2022-09-09T15:49:45;6.90;;;1.65;;
28309;SDS011;15571;50.974;13.936;2022-09-09T15:52:48;3.78;;;1.80;;
28309;SDS011;15571;50.974;13.936;2022-09-09T15:55:54;6.22;;;1.73;;
28309;SDS011;15571;50.974;13.936;2022-09-09T15:58:57;4.57;;;2.10;;
28309;SDS011;15571;50.974;13.936;2022-09-09T16:02:00;2.88;;;1.42;;
28309;SDS011;15571;50.974;13.936;2022-09-09T16:05:05;5.55;;;2.42;;
28309;SDS011;15571;50.974;13.936;2022-09-09T16:08:08;6.00;;;2.45;;
28309;SDS011;15571;50.974;13.936;2022-09-09T16:11:15;3.78;;;1.50;;
28309;SDS011;15571;50.974;13.936;2022-09-09T16:14:20;8.85;;;1.98;;
28309;SDS011;15571;50.974;13.936;2022-09-09T16:17:23;3.72;;;1.95;;
28309;SDS011;15571;50.974;13.936;2022-09-09T16:20:29;7.25;;;2.33;;
28309;SDS011;15571;50.974;13.936;2022-09-09T16:23:32;6.70;;;2.45;;
28309;SDS011;15571;50.974;13.936;2022-09-09T16:26:35;3.63;;;2.60;;
28309;SDS011;15571;50.974;13.936;2022-09-09T16:29:39;4.75;;;2.60;;
28309;SDS011;15571;50.974;13.936;2022-09-09T16:32:45;3.63;;;2.10;;
28309;SDS011;15571;50.974;13.936;2022-09-09T16:35:50;7.00;;;1.98;;
28309;SDS011;15571;50.974;13.936;2022-09-09T16:38:53;6.03;;;1.90;;
28309;SDS011;15571;50.974;13.936;2022-09-09T16:41:57;4.85;;;1.92;;
28309;SDS011;15571;50.974;13.936;2022-09-09T16:45:00;4.45;;;1.30;;
28309;SDS011;15571;50.974;13.936;2022-09-09T16:48:05;5.07;;;2.40;;
28309;SDS011;15571;50.974;13.936;2022-09-09T16:51:11;4.53;;;1.42;;
28309;SDS011;15571;50.974;13.936;2022-09-09T16:54:19;3.03;;;1.58;;
28309;SDS011;15571;50.974;13.936;2022-09-09T16:57:22;4.43;;;1.92;;
28309;SDS011;15571;50.974;13.936;2022-09-09T17:00:30;4.75;;;2.20;;
28309;SDS011;15571;50.974;13.936;2022-09-09T17:03:34;2.78;;;2.13;;
28309;SDS011;15571;50.974;13.936;2022-09-09T17:06:38;5.57;;;2.58;;
28309;SDS011;15571;50.974;13.936;2022-09-09T17:09:42;5.55;;;2.50;;
28309;SDS011;15571;50.974;13.936;2022-09-09T17:12:47;3.92;;;2.42;;
28309;SDS011;15571;50.974;13.936;2022-09-09T17:15:50;6.97;;;2.40;;
28309;SDS011;15571;50.974;13.936;2022-09-09T17:18:53;2.85;;;2.10;;
28309;SDS011;15571;50.974;13.936;2022-09-09T17:21:58;3.85;;;2.40;;
28309;SDS011;15571;50.974;13.936;2022-09-09T17:25:02;4.50;;;2.30;;
28309;SDS011;15571;50.974;13.936;2022-09-09T17:28:05;4.75;;;2.33;;
28309;SDS011;15571;50.974;13.936;2022-09-09T17:31:08;7.18;;;3.10;;
28309;SDS011;15571;50.974;13.936;2022-09-09T17:34:12;5.68;;;2.70;;
28309;SDS011;15571;50.974;13.936;2022-09-09T17:37:16;4.57;;;2.70;;
28309;SDS011;15571;50.974;13.936;2022-09-09T17:40:19;2.72;;;2.30;;
28309;SDS011;15571;50.974;13.936;2022-09-09T17:43:22;3.78;;;2.03;;
28309;SDS011;15571;50.974;13.936;2022-09-09T17:46:29;3.08;;;2.15;;
28309;SDS011;15571;50.974;13.936;2022-09-09T17:49:34;4.57;;;2.28;;
28309;SDS011;15571;50.974;13.936;2022-09-09T17:52:41;4.45;;;2.50;;
28309;SDS011;15571;50.974;13.936;2022-09-09T17:55:44;2.83;;;1.80;;
28309;SDS011;15571;50.974;13.936;2022-09-09T17:58:47;5.32;;;2.17;;
28309;SDS011;15571;50.974;13.936;2022-09-09T18:01:54;4.10;;;2.10;;
28309;SDS011;15571;50.974;13.936;2022-09-09T18:04:57;3.83;;;2.30;;
28309;SDS011;15571;50.974;13.936;2022-09-09T18:08:01;3.70;;;2.25;;
28309;SDS011;15571;50.974;13.936;2022-09-09T18:11:04;8.35;;;2.70;;
28309;SDS011;15571;50.974;13.936;2022-09-09T18:14:08;4.55;;;2.72;;
28309;SDS011;15571;50.974;13.936;2022-09-09T18:17:12;5.20;;;3.05;;
28309;SDS011;15571;50.974;13.936;2022-09-09T18:20:16;3.53;;;3.08;;
28309;SDS011;15571;50.974;13.936;2022-09-09T18:23:21;4.60;;;3.45;;
28309;SDS011;15571;50.974;13.936;2022-09-09T18:26:25;4.57;;;2.90;;
28309;SDS011;15571;50.974;13.936;2022-09-09T18:29:33;5.70;;;3.40;;
28309;SDS011;15571;50.974;13.936;2022-09-09T18:32:35;6.57;;;3.90;;
28309;SDS011;15571;50.974;13.936;2022-09-09T18:35:38;7.75;;;3.70;;
28309;SDS011;15571;50.974;13.936;2022-09-09T18:38:42;6.85;;;4.43;;
28309;SDS011;15571;50.974;13.936;2022-09-09T18:41:46;4.32;;;3.85;;
28309;SDS011;15571;50.974;13.936;2022-09-09T18:44:49;7.20;;;4.03;;
28309;SDS011;15571;50.974;13.936;2022-09-09T18:47:52;6.68;;;3.80;;
28309;SDS011;15571;50.974;13.936;2022-09-09T18:51:00;5.28;;;3.65;;
28309;SDS011;15571;50.974;13.936;2022-09-09T18:54:11;5.22;;;3.70;;
28309;SDS011;15571;50.974;13.936;2022-09-09T18:57:18;4.95;;;3.78;;
28309;SDS011;15571;50.974;13.936;2022-09-09T19:00:20;9.13;;;4.60;;
28309;SDS011;15571;50.974;13.936;2022-09-09T19:03:23;4.90;;;4.13;;
28309;SDS011;15571;50.974;13.936;2022-09-09T19:06:28;8.15;;;4.22;;
28309;SDS011;15571;50.974;13.936;2022-09-09T19:09:36;5.75;;;4.13;;
28309;SDS011;15571;50.974;13.936;2022-09-09T19:12:39;10.13;;;5.38;;
28309;SDS011;15571;50.974;13.936;2022-09-09T19:15:42;7.60;;;4.88;;
28309;SDS011;15571;50.974;13.936;2022-09-09T19:18:44;8.57;;;5.38;;
28309;SDS011;15571;50.974;13.936;2022-09-09T19:21:52;6.40;;;5.60;;
28309;SDS011;15571;50.974;13.936;2022-09-09T19:24:58;6.03;;;4.45;;
28309;SDS011;15571;50.974;13.936;2022-09-09T19:28:03;4.95;;;3.72;;
28309;SDS011;15571;50.974;13.936;2022-09-09T19:31:08;4.72;;;3.72;;
28309;SDS011;15571;50.974;13.936;2022-09-09T19:34:11;3.50;;;3.10;;
28309;SDS011;15571;50.974;13.936;2022-09-09T19:37:14;5.35;;;3.45;;
28309;SDS011;15571;50.974;13.936;2022-09-09T19:40:18;4.18;;;3.22;;
28309;SDS011;15571;50.974;13.936;2022-09-09T19:43:24;3.92;;;3.08;;
28309;SDS011;15571;50.974;13.936;2022-09-09T19:46:27;7.22;;;4.32;;
28309;SDS011;15571;50.974;13.936;2022-09-09T19:49:31;6.18;;;3.75;;
28309;SDS011;15571;50.974;13.936;2022-09-09T19:52:33;4.88;;;3.72;;
28309;SDS011;15571;50.974;13.936;2022-09-09T19:55:39;5.78;;;3.40;;
28309;SDS011;15571;50.974;13.936;2022-09-09T19:58:42;4.38;;;3.20;;
28309;SDS011;15571;50.974;13.936;2022-09-09T20:01:49;6.38;;;3.20;;
28309;SDS011;15571;50.974;13.936;2022-09-09T20:04:57;3.38;;;3.08;;
28309;SDS011;15571;50.974;13.936;2022-09-09T20:07:59;8.88;;;5.38;;
28309;SDS011;15571;50.974;13.936;2022-09-09T20:11:04;6.65;;;4.30;;
28309;SDS011;15571;50.974;13.936;2022-09-09T20:14:07;4.30;;;3.28;;
28309;SDS011;15571;50.974;13.936;2022-09-09T20:17:11;5.63;;;2.72;;
28309;SDS011;15571;50.974;13.936;2022-09-09T20:20:14;2.75;;;2.33;;
28309;SDS011;15571;50.974;13.936;2022-09-09T20:23:17;5.28;;;2.80;;
28309;SDS011;15571;50.974;13.936;2022-09-09T20:26:21;2.65;;;2.45;;
28309;SDS011;15571;50.974;13.936;2022-09-09T20:29:26;3.30;;;2.80;;
28309;SDS011;15571;50.974;13.936;2022-09-09T20:32:31;3.75;;;2.47;;
28309;SDS011;15571;50.974;13.936;2022-09-09T20:35:35;4.53;;;2.55;;
28309;SDS011;15571;50.974;13.936;2022-09-09T22:23:50;4.65;;;2.20;;
28309;SDS011;15571;50.974;13.936;2022-09-09T22:26:56;6.93;;;2.37;;
28309;SDS011;15571;50.974;13.936;2022-09-09T22:30:01;8.20;;;2.72;;
28309;SDS011;15571;50.974;13.936;2022-09-09T22:33:06;4.05;;;2.40;;
28309;SDS011;15571;50.974;13.936;2022-09-09T22:36:12;6.18;;;2.67;;
28309;SDS011;15571;50.974;13.936;2022-09-09T22:39:18;7.53;;;3.00;;
28309;SDS011;15571;50.974;13.936;2022-09-09T22:42:23;4.28;;;2.38;;
28309;SDS011;15571;50.974;13.936;2022-09-09T22:45:26;5.45;;;2.38;;
28309;SDS011;15571;50.974;13.936;2022-09-09T22:48:30;6.95;;;2.42;;
28309;SDS011;15571;50.974;13.936;2022-09-09T22:51:35;2.47;;;2.28;;
28309;SDS011;15571;50.974;13.936;2022-09-09T22:54:41;8.02;;;2.25;;
28309;SDS011;15571;50.974;13.936;2022-09-09T22:57:45;4.40;;;2.28;;
